Time;durP1;ratioP1;P1;durP2;ratioP2;P2;SDS_P1;SDS_P2;PMS_P1;PMS_P2;Temp;Humidity;BMP_temperature;BMP_pressure;BME280_temperature;BME280_humidity;BME280_pressure;Samples;Min_cycle;Max_cycle;Signal;HPM_P1;HPM_P2
2024/03/09 00:01:44;;;;;;;11.85;4.20;;;9.50;99.90;;;;;;5186957;22;20147;-95
2024/03/09 00:03:53;;;;;;;9.90;3.83;;;9.50;99.90;;;;;;5158132;23;20138;-93
2024/03/09 00:05:59;;;;;;;7.65;3.42;;;9.50;99.90;;;;;;5156136;23;20230;-96
2024/03/09 00:08:18;;;;;;;10.82;4.80;;;9.50;99.90;;;;;;5186134;22;20155;-94
2024/03/09 00:11:18;;;;;;;15.15;4.90;;;9.40;99.90;;;;;;5205626;22;20169;-93
2024/03/09 00:13:30;;;;;;;12.15;4.28;;;9.50;99.90;;;;;;5184997;22;20204;-95
2024/03/09 00:15:43;;;;;;;9.77;4.32;;;9.40;99.90;;;;;;5184354;22;20139;-94
2024/03/09 00:17:59;;;;;;;8.52;3.80;;;9.30;99.90;;;;;;5182438;22;20139;-93
2024/03/09 00:20:19;;;;;;;8.98;3.95;;;9.30;99.90;;;;;;5159774;23;20604;-93
2024/03/09 00:22:25;;;;;;;9.88;4.03;;;9.30;99.90;;;;;;5158191;22;20164;-93
2024/03/09 00:24:35;;;;;;;13.82;5.07;;;9.40;99.90;;;;;;5185260;22;20151;-92
2024/03/09 00:26:45;;;;;;;11.32;4.93;;;9.30;99.90;;;;;;5188568;22;20149;-94
2024/03/09 00:28:54;;;;;;;10.15;4.88;;;9.30;99.90;;;;;;5182341;22;20137;-93
2024/03/09 00:31:00;;;;;;;11.40;5.15;;;9.20;99.90;;;;;;5178835;22;20181;-95
2024/03/09 00:33:31;;;;;;;13.05;4.40;;;9.30;99.90;;;;;;5209373;22;20208;-95
2024/03/09 00:35:35;;;;;;;12.02;4.97;;;9.30;99.90;;;;;;5187147;22;20139;-94
2024/03/09 00:37:55;;;;;;;9.90;4.28;;;9.30;99.90;;;;;;5183598;22;20139;-94
2024/03/09 00:40:14;;;;;;;11.45;4.35;;;9.40;99.90;;;;;;5186025;22;20210;-94
2024/03/09 00:42:32;;;;;;;11.68;4.35;;;9.30;99.90;;;;;;5184529;22;20165;-95
2024/03/09 00:44:36;;;;;;;12.15;4.70;;;9.20;99.90;;;;;;5160363;22;20163;-95
2024/03/09 00:46:45;;;;;;;11.90;4.78;;;9.20;99.90;;;;;;5204445;22;20149;-94
2024/03/09 00:48:46;;;;;;;13.35;4.75;;;9.30;99.90;;;;;;5183211;22;20143;-94
2024/03/09 00:51:10;;;;;;;8.85;3.90;;;9.50;99.90;;;;;;5183527;22;20135;-94
2024/03/09 00:53:25;;;;;;;8.73;4.25;;;9.30;99.90;;;;;;5194024;22;20161;-94
2024/03/09 00:55:49;;;;;;;10.85;3.47;;;9.30;99.90;;;;;;5186929;22;20151;-93
2024/03/09 00:58:19;;;;;;;12.43;4.55;;;9.30;99.90;;;;;;5183148;22;20182;-94
2024/03/09 01:00:26;;;;;;;9.68;3.78;;;9.20;99.90;;;;;;5159065;23;20203;-94
2024/03/09 01:02:33;;;;;;;10.23;4.60;;;9.20;99.90;;;;;;5154807;23;20160;-93
2024/03/09 01:04:47;;;;;;;10.45;4.90;;;9.10;99.90;;;;;;5158292;22;20139;-94
2024/03/09 01:07:23;;;;;;;;;;;;;;;;;;;;;
2024/03/09 01:09:28;;;;;;;9.43;4.10;;;9.20;99.90;;;;;;5183113;22;20155;-95
2024/03/09 01:11:35;;;;;;;8.73;4.68;;;9.20;99.90;;;;;;5180590;22;20215;-95
2024/03/09 01:13:48;;;;;;;9.60;4.40;;;9.30;99.90;;;;;;5170158;22;20143;-95
2024/03/09 01:15:54;;;;;;;13.40;4.80;;;9.20;99.90;;;;;;5183446;22;20139;-94
2024/03/09 01:17:55;;;;;;;12.18;4.28;;;9.20;99.90;;;;;;5182428;22;20139;-94
2024/03/09 01:20:24;;;;;;;13.30;5.20;;;9.20;99.90;;;;;;5184914;22;20209;-93
2024/03/09 01:22:37;;;;;;;10.32;4.78;;;9.10;99.90;;;;;;5180942;22;20146;-94
2024/03/09 01:25:05;;;;;;;10.43;5.13;;;9.00;99.90;;;;;;5185043;22;20585;-93
2024/03/09 01:27:18;;;;;;;17.30;5.22;;;9.00;99.90;;;;;;5184638;22;20147;-93
2024/03/09 01:30:20;;;;;;;15.93;5.25;;;9.00;99.90;;;;;;5210431;22;20184;-94
2024/03/09 01:32:49;;;;;;;11.52;4.85;;;9.10;99.90;;;;;;5183480;22;20146;-94
2024/03/09 01:35:08;;;;;;;11.57;4.57;;;9.00;99.90;;;;;;5156193;23;20152;-94
2024/03/09 01:37:19;;;;;;;11.10;4.43;;;9.00;99.90;;;;;;5178843;22;20556;-94
2024/03/09 01:39:26;;;;;;;11.27;4.72;;;9.00;99.90;;;;;;5182737;22;20157;-94
2024/03/09 01:41:53;;;;;;;11.88;4.03;;;9.00;99.90;;;;;;5207539;22;20153;-94
2024/03/09 01:44:00;;;;;;;14.00;5.50;;;9.00;99.90;;;;;;5178673;22;20158;-94
2024/03/09 01:46:20;;;;;;;16.02;5.15;;;9.00;99.90;;;;;;5177914;22;20238;-94
2024/03/09 01:48:45;;;;;;;8.40;3.92;;;9.10;99.90;;;;;;5179141;22;20139;-93
2024/03/09 01:50:46;;;;;;;11.02;4.97;;;9.00;99.90;;;;;;5155578;23;20139;-94
2024/03/09 01:53:21;;;;;;;11.80;4.95;;;9.10;99.90;;;;;;5177879;22;20139;-94
2024/03/09 01:55:33;;;;;;;12.65;5.40;;;9.20;99.90;;;;;;5181018;22;20162;-94
2024/03/09 01:57:37;;;;;;;11.75;4.47;;;9.20;99.90;;;;;;5203116;22;20162;-93
2024/03/09 02:00:09;;;;;;;12.75;5.75;;;9.10;99.90;;;;;;5154052;23;20159;-94
2024/03/09 02:02:21;;;;;;;13.45;4.70;;;9.10;99.90;;;;;;5154875;23;20159;-94
2024/03/09 02:05:12;;;;;;;12.80;4.65;;;9.10;99.90;;;;;;5206313;22;20597;-93
2024/03/09 02:07:16;;;;;;;17.15;5.25;;;9.00;99.90;;;;;;5154971;23;20166;-94
2024/03/09 02:09:21;;;;;;;9.88;4.53;;;9.10;99.90;;;;;;5157972;23;20174;-94
2024/03/09 02:11:23;;;;;;;12.60;5.15;;;8.90;99.90;;;;;;5153317;23;20166;-94
2024/03/09 02:13:41;;;;;;;15.40;5.85;;;9.00;99.90;;;;;;5184522;22;20163;-93
2024/03/09 02:16:00;;;;;;;16.65;5.22;;;9.10;99.90;;;;;;5184024;22;20672;-94
2024/03/09 02:18:49;;;;;;;9.40;4.55;;;9.10;99.90;;;;;;5164056;22;20142;-93
2024/03/09 02:21:18;;;;;;;8.88;3.92;;;9.00;99.90;;;;;;5205258;22;20190;-95
2024/03/09 02:23:32;;;;;;;10.85;4.32;;;9.00;99.90;;;;;;5183295;22;20135;-93
2024/03/09 02:25:56;;;;;;;13.07;4.97;;;9.00;99.90;;;;;;5208142;22;20150;-94
2024/03/09 02:28:29;;;;;;;11.85;5.05;;;9.00;99.90;;;;;;5181167;22;20166;-93
2024/03/09 02:31:00;;;;;;;11.85;4.55;;;9.10;99.90;;;;;;5210297;22;20248;-91
2024/03/09 02:33:12;;;;;;;6.85;3.67;;;9.00;99.90;;;;;;5181718;22;20151;-92
2024/03/09 02:35:13;;;;;;;11.23;4.20;;;9.00;99.90;;;;;;5183554;22;20462;-93
2024/03/09 02:37:24;;;;;;;8.95;3.58;;;9.00;99.90;;;;;;5209314;22;20156;-92
2024/03/09 02:39:27;;;;;;;10.35;4.43;;;9.00;99.90;;;;;;5181543;22;20174;-92
2024/03/09 02:41:58;;;;;;;11.63;4.30;;;9.00;99.90;;;;;;5179109;22;20165;-93
2024/03/09 02:44:05;;;;;;;12.68;4.85;;;8.90;99.90;;;;;;5180383;22;20568;-93
2024/03/09 02:46:29;;;;;;;13.35;4.70;;;8.80;99.90;;;;;;5157858;22;20207;-92
2024/03/09 02:48:34;;;;;;;9.98;4.32;;;8.90;99.90;;;;;;5155661;22;20167;-92
2024/03/09 02:50:38;;;;;;;9.68;4.57;;;8.90;99.90;;;;;;5157739;23;20166;-93
2024/03/09 02:52:49;;;;;;;15.00;4.90;;;8.90;99.90;;;;;;5180349;22;20483;-92
2024/03/09 02:55:10;;;;;;;14.38;5.25;;;9.00;99.90;;;;;;5206145;22;20157;-93
2024/03/09 02:57:22;;;;;;;12.43;4.50;;;8.90;99.90;;;;;;5154600;22;20159;-94
2024/03/09 02:59:35;;;;;;;12.50;4.88;;;8.80;99.90;;;;;;5154619;23;20198;-91
2024/03/09 03:01:46;;;;;;;16.02;5.78;;;8.70;99.90;;;;;;5186456;22;20162;-93
2024/03/09 03:04:19;;;;;;;15.68;4.93;;;8.70;99.90;;;;;;5156494;23;20150;-91
2024/03/09 03:06:38;;;;;;;12.90;6.25;;;8.90;99.90;;;;;;5183582;22;20233;-92
2024/03/09 03:08:45;;;;;;;13.95;5.25;;;9.00;99.90;;;;;;5181816;22;20139;-92
2024/03/09 03:10:46;;;;;;;16.73;5.28;;;8.90;99.90;;;;;;5181245;22;20146;-92
2024/03/09 03:12:53;;;;;;;12.18;4.90;;;8.90;99.90;;;;;;5164201;22;20139;-92
2024/03/09 03:15:01;;;;;;;13.63;4.65;;;8.90;99.90;;;;;;5189369;22;20178;-93
2024/03/09 03:17:12;;;;;;;14.45;5.35;;;8.90;99.90;;;;;;5180717;22;20131;-93
2024/03/09 03:19:33;;;;;;;11.38;4.95;;;9.00;99.90;;;;;;5209251;22;20235;-91
2024/03/09 03:21:57;;;;;;;12.80;4.88;;;9.00;99.90;;;;;;5162997;23;20131;-93
2024/03/09 03:24:09;;;;;;;10.88;5.03;;;9.00;99.90;;;;;;5182025;22;20594;-93
2024/03/09 03:26:25;;;;;;;9.82;4.32;;;9.00;99.90;;;;;;5188231;22;20166;-92
2024/03/09 03:28:55;;;;;;;9.00;4.22;;;9.10;99.90;;;;;;5212607;22;20184;-93
2024/03/09 03:31:04;;;;;;;15.40;5.43;;;8.90;99.90;;;;;;5207199;22;20154;-93
2024/03/09 03:33:11;;;;;;;13.55;5.45;;;8.90;99.90;;;;;;5206638;22;20526;-92
2024/03/09 03:35:36;;;;;;;16.55;5.03;;;8.90;99.90;;;;;;5183477;22;20157;-92
2024/03/09 03:37:51;;;;;;;11.00;5.00;;;8.90;99.90;;;;;;5210020;22;20134;-92
2024/03/09 03:40:15;;;;;;;13.48;5.28;;;8.80;99.90;;;;;;5188498;22;20245;-92
2024/03/09 03:43:04;;;;;;;12.88;5.78;;;8.80;99.90;;;;;;5210371;22;20193;-92
2024/03/09 03:45:27;;;;;;;9.50;4.13;;;8.80;99.90;;;;;;5183666;22;20158;-92
2024/03/09 03:47:35;;;;;;;10.13;4.50;;;8.80;99.90;;;;;;5181119;22;20624;-93
2024/03/09 03:49:56;;;;;;;10.30;4.55;;;8.70;99.90;;;;;;5154253;23;20163;-92
2024/03/09 03:52:56;;;;;;;15.52;4.80;;;8.70;99.90;;;;;;5206093;22;20212;-91
2024/03/09 03:55:06;;;;;;;14.65;5.35;;;8.70;99.90;;;;;;5157886;23;20160;-92
2024/03/09 03:57:16;;;;;;;17.67;5.07;;;8.60;99.90;;;;;;5206534;22;20150;-91
2024/03/09 04:01:47;;;;;;;14.77;5.25;;;8.50;99.90;;;;;;5158219;22;20174;-93
2024/03/09 04:04:11;;;;;;;14.85;5.85;;;8.40;99.90;;;;;;5132887;23;20164;-95
2024/03/09 04:06:36;;;;;;;12.23;6.13;;;8.40;99.90;;;;;;5135558;23;20137;-93
2024/03/09 04:08:53;;;;;;;11.32;4.70;;;8.40;99.90;;;;;;5111849;23;20145;-94
2024/03/09 04:11:32;;;;;;;10.80;4.68;;;8.40;99.90;;;;;;5127414;23;20160;-93
2024/03/09 04:13:52;;;;;;;13.20;5.20;;;8.40;99.90;;;;;;5112589;23;20148;-93
2024/03/09 04:16:22;;;;;;;12.00;4.60;;;8.30;99.90;;;;;;5109366;23;20642;-93
2024/03/09 04:18:58;;;;;;;12.35;4.82;;;8.20;99.90;;;;;;5110281;23;20137;-94
2024/03/09 04:21:22;;;;;;;11.57;5.10;;;8.20;99.90;;;;;;5131750;23;20172;-93
2024/03/09 04:23:43;;;;;;;8.73;4.18;;;8.20;99.90;;;;;;5108370;23;20161;-93
2024/03/09 04:26:08;;;;;;;13.18;5.35;;;8.00;99.90;;;;;;5104320;23;20157;-93
2024/03/09 04:28:20;;;;;;;15.48;4.68;;;8.00;99.90;;;;;;5108972;23;20173;-94
2024/03/09 04:30:23;;;;;;;10.43;4.63;;;7.90;99.90;;;;;;5134767;23;20176;-94
2024/03/09 04:32:44;;;;;;;13.43;4.75;;;8.00;99.90;;;;;;5112538;23;20141;-94
2024/03/09 04:35:28;;;;;;;10.48;4.70;;;8.00;99.90;;;;;;5136949;23;20148;-95
2024/03/09 04:37:58;;;;;;;10.15;4.30;;;8.00;99.90;;;;;;5104537;23;20157;-94
2024/03/09 04:40:14;;;;;;;14.57;5.00;;;7.90;99.90;;;;;;5112476;23;20242;-93
2024/03/09 04:42:28;;;;;;;13.38;5.00;;;7.90;99.90;;;;;;5107421;23;20153;-94
2024/03/09 04:44:41;;;;;;;10.00;3.92;;;7.80;99.90;;;;;;5132691;23;20147;-94
2024/03/09 04:47:03;;;;;;;14.50;4.60;;;7.80;99.90;;;;;;5100997;23;20588;-93
2024/03/09 04:49:07;;;;;;;11.57;5.10;;;7.70;99.90;;;;;;5105862;23;20145;-93
2024/03/09 04:51:23;;;;;;;8.60;4.32;;;7.70;99.90;;;;;;5081366;23;20474;-93
2024/03/09 04:53:41;;;;;;;14.27;5.07;;;7.80;99.90;;;;;;5132220;23;20140;-93
2024/03/09 04:55:55;;;;;;;11.90;5.00;;;8.40;99.90;;;;;;5131283;23;20183;-94
2024/03/09 04:58:22;;;;;;;11.35;4.68;;;8.90;99.90;;;;;;5081888;23;20188;-93
2024/03/09 05:00:48;;;;;;;15.13;4.50;;;8.40;99.90;;;;;;5108650;23;20187;-93
2024/03/09 05:03:23;;;;;;;10.40;4.97;;;7.90;99.90;;;;;;5107019;23;20249;-94
2024/03/09 05:05:35;;;;;;;11.98;4.63;;;7.60;99.90;;;;;;5108180;23;20604;-93
2024/03/09 05:08:24;;;;;;;12.17;5.10;;;7.50;99.90;;;;;;5110105;23;20171;-93
2024/03/09 05:11:14;;;;;;;14.88;4.95;;;7.40;99.90;;;;;;5104551;23;20184;-93
2024/03/09 05:13:37;;;;;;;11.97;3.97;;;7.40;99.90;;;;;;5104079;23;20215;-94
2024/03/09 05:15:50;;;;;;;11.10;4.40;;;7.30;99.90;;;;;;5108811;23;20164;-93
2024/03/09 05:18:08;;;;;;;12.68;4.95;;;7.30;99.90;;;;;;5084347;23;20141;-93
2024/03/09 05:20:19;;;;;;;12.47;5.17;;;7.30;99.90;;;;;;5105188;23;20662;-94
2024/03/09 05:22:32;;;;;;;12.87;4.83;;;7.30;99.90;;;;;;5132475;23;20140;-95
2024/03/09 05:24:56;;;;;;;10.47;4.63;;;7.30;99.90;;;;;;5131342;23;20160;-93
2024/03/09 05:27:04;;;;;;;9.43;4.43;;;7.40;99.90;;;;;;5132864;23;20158;-93
2024/03/09 05:29:13;;;;;;;12.67;4.77;;;7.50;99.90;;;;;;5088733;23;20173;-94
2024/03/09 05:31:26;;;;;;;12.00;4.90;;;7.50;99.90;;;;;;5088406;23;20165;-94
2024/03/09 05:33:40;;;;;;;10.40;4.47;;;7.50;99.90;;;;;;5080599;23;20134;-94
2024/03/09 05:36:21;;;;;;;8.55;4.18;;;7.60;99.90;;;;;;5081620;23;20141;-94
2024/03/09 05:38:23;;;;;;;16.00;4.93;;;7.50;99.90;;;;;;5095489;23;20223;-94
2024/03/09 05:40:36;;;;;;;11.83;4.67;;;7.50;99.90;;;;;;5108612;23;20195;-94
2024/03/09 05:42:50;;;;;;;14.77;4.72;;;7.50;99.90;;;;;;5129659;23;20152;-93
2024/03/09 05:45:09;;;;;;;12.48;4.32;;;7.50;99.90;;;;;;5136817;23;20140;-95
2024/03/09 05:47:18;;;;;;;14.07;5.03;;;7.50;99.90;;;;;;5105282;23;20480;-95
2024/03/09 05:49:26;;;;;;;12.25;4.93;;;7.50;99.90;;;;;;5084986;23;20185;-94
2024/03/09 05:51:35;;;;;;;10.68;4.63;;;7.50;99.90;;;;;;5103292;23;20171;-94
2024/03/09 05:53:43;;;;;;;16.47;4.67;;;7.50;99.90;;;;;;5110032;23;20143;-93
2024/03/09 05:56:01;;;;;;;12.50;4.50;;;7.40;99.90;;;;;;5130206;23;20163;-93
2024/03/09 05:58:49;;;;;;;11.07;4.50;;;7.40;99.90;;;;;;5109582;23;20149;-93
2024/03/09 06:00:53;;;;;;;8.30;4.13;;;7.30;99.90;;;;;;5080477;23;20203;-93
2024/03/09 06:02:58;;;;;;;8.50;4.40;;;7.40;99.90;;;;;;5084321;23;20162;-95
2024/03/09 06:05:13;;;;;;;10.50;4.47;;;7.40;99.90;;;;;;5105122;23;20141;-94
2024/03/09 06:07:20;;;;;;;13.10;4.90;;;7.50;99.90;;;;;;5130378;23;20158;-93
2024/03/09 06:10:00;;;;;;;14.60;4.27;;;7.50;99.90;;;;;;5113856;23;20168;-94
2024/03/09 06:12:14;;;;;;;10.23;4.60;;;7.60;99.90;;;;;;5135874;23;20203;-93
2024/03/09 06:14:32;;;;;;;12.18;4.60;;;7.70;99.90;;;;;;5138205;23;20136;-93
2024/03/09 06:16:49;;;;;;;12.40;4.13;;;7.70;99.90;;;;;;5113799;23;20147;-94
2024/03/09 06:19:13;;;;;;;12.35;3.58;;;7.80;99.90;;;;;;5130232;23;20199;-93
2024/03/09 06:21:23;;;;;;;13.50;5.13;;;7.80;99.90;;;;;;5137991;23;20212;-93
2024/03/09 06:23:50;;;;;;;11.00;4.30;;;7.70;99.90;;;;;;5138302;23;20144;-93
2024/03/09 06:25:56;;;;;;;10.47;3.83;;;7.70;99.90;;;;;;5114180;23;20145;-93
2024/03/09 06:28:28;;;;;;;11.27;4.33;;;7.80;99.90;;;;;;5113943;23;20209;-94
2024/03/09 06:31:06;;;;;;;12.63;4.13;;;7.80;99.90;;;;;;5130112;22;20195;-93
2024/03/09 06:33:46;;;;;;;13.30;4.80;;;7.80;99.90;;;;;;5184889;22;20149;-93
2024/03/09 06:36:24;;;;;;;11.90;3.87;;;7.80;99.90;;;;;;5189286;22;20231;-93
2024/03/09 06:38:59;;;;;;;9.55;4.18;;;7.90;99.90;;;;;;5212735;22;20150;-92
2024/03/09 06:41:14;;;;;;;12.07;4.20;;;8.00;99.90;;;;;;5138747;23;20223;-92
2024/03/09 06:43:56;;;;;;;8.03;3.77;;;8.20;99.90;;;;;;5158946;22;20202;-94
2024/03/09 06:46:23;;;;;;;8.18;4.05;;;8.30;99.90;;;;;;5160954;22;20139;-93
2024/03/09 06:48:51;;;;;;;9.55;3.80;;;8.40;99.90;;;;;;5182543;22;20142;-93
2024/03/09 06:50:55;;;;;;;11.68;4.38;;;8.60;99.90;;;;;;5161453;22;20136;-94
2024/03/09 06:53:25;;;;;;;13.57;5.07;;;8.80;99.90;;;;;;5162761;22;20147;-93
2024/03/09 06:55:58;;;;;;;11.98;3.80;;;9.30;99.90;;;;;;5135167;23;20215;-93
2024/03/09 06:58:13;;;;;;;9.98;4.50;;;10.00;99.90;;;;;;5160054;22;20144;-92
2024/03/09 07:00:41;;;;;;;9.50;4.28;;;10.90;99.90;;;;;;5185048;22;20198;-93
2024/03/09 07:03:36;;;;;;;11.88;4.63;;;11.50;99.90;;;;;;5161855;22;20597;-94
2024/03/09 07:05:56;;;;;;;14.48;5.10;;;12.10;99.90;;;;;;5099214;22;20178;-94
2024/03/09 07:08:21;;;;;;;8.57;4.35;;;12.50;99.90;;;;;;5115770;22;20853;-93
2024/03/09 07:11:45;;;;;;;9.00;3.22;;;12.50;99.90;;;;;;5160602;22;20171;-95
